Time,TemperatureF,DewpointF,PressureIn,WindDirection,WindDirectionDegrees,WindSpeedMPH,WindSpeedGustMPH,Humidity,HourlyPrecipIn,Conditions,Clouds,dailyrainin,SoftwareType,DateUTC
2013-03-19 00:12:00,29.0,14.0,-100.00,SW,235,0.0,3.0,53,-99.99,,,0.00,,2013-03-19 06:12:00,
2013-03-19 00:22:00,29.0,14.0,-100.00,SW,235,0.0,3.0,53,-99.99,,,0.00,,2013-03-19 06:22:00,
2013-03-19 00:32:00,29.0,14.0,-100.00,SW,235,0.0,3.0,53,-99.99,,,0.00,,2013-03-19 06:32:00,
2013-03-19 00:42:00,29.0,14.0,-100.00,SW,235,0.0,3.0,53,-99.99,,,0.00,,2013-03-19 06:42:00,
2013-03-19 00:52:00,30.0,16.0,-100.00,West,270,3.0,7.0,55,-99.99,,,0.00,,2013-03-19 06:52:00,
2013-03-19 01:02:00,30.0,16.0,-100.00,West,270,3.0,7.0,55,-99.99,,,0.00,,2013-03-19 07:02:00,
2013-03-19 01:12:00,30.0,16.0,-100.00,SW,235,3.0,4.0,57,-99.99,,,0.00,,2013-03-19 07:12:00,
2013-03-19 01:21:00,30.0,16.0,-100.00,SW,235,3.0,4.0,57,-99.99,,,0.00,,2013-03-19 07:21:00,
2013-03-19 01:32:00,30.0,16.0,-100.00,SW,235,3.0,4.0,57,-99.99,,,0.00,,2013-03-19 07:32:00,
2013-03-19 01:42:00,30.0,16.0,-100.00,SW,235,3.0,4.0,57,-99.99,,,0.00,,2013-03-19 07:42:00,
2013-03-19 01:52:00,29.0,16.0,-100.00,ENE,60,4.0,5.0,59,-99.99,,,0.00,,2013-03-19 07:52:00,
2013-03-19 02:02:00,29.0,16.0,-100.00,ENE,60,4.0,5.0,59,-99.99,,,0.00,,2013-03-19 08:02:00,
2013-03-19 02:12:00,28.0,16.0,-100.00,ENE,75,5.0,6.0,60,-99.99,,,0.00,,2013-03-19 08:12:00,
2013-03-19 02:22:00,28.0,16.0,-100.00,ENE,75,5.0,6.0,60,-99.99,,,0.00,,2013-03-19 08:22:00,
2013-03-19 02:32:00,28.0,16.0,-100.00,ENE,75,5.0,6.0,60,-99.99,,,0.00,,2013-03-19 08:32:00,
2013-03-19 02:42:00,28.0,16.0,-100.00,ENE,75,5.0,6.0,60,-99.99,,,0.00,,2013-03-19 08:42:00,
2013-03-19 02:52:00,27.0,15.0,-100.00,SE,145,6.0,6.0,61,-99.99,,,0.00,,2013-03-19 08:52:00,
2013-03-19 03:02:00,27.0,15.0,-100.00,SE,145,6.0,6.0,61,-99.99,,,0.00,,2013-03-19 09:02:00,
2013-03-19 03:12:00,26.0,15.0,-100.00,East,100,3.0,4.0,62,-99.99,,,0.00,,2013-03-19 09:12:00,
2013-03-19 03:22:00,26.0,15.0,-100.00,East,100,3.0,4.0,62,-99.99,,,0.00,,2013-03-19 09:22:00,
2013-03-19 03:32:00,26.0,15.0,-100.00,East,100,3.0,4.0,62,-99.99,,,0.00,,2013-03-19 09:32:00,
2013-03-19 03:42:00,26.0,15.0,-100.00,East,100,3.0,4.0,62,-99.99,,,0.00,,2013-03-19 09:42:00,
2013-03-19 03:52:00,25.0,15.0,-100.00,ENE,60,1.0,2.0,64,-99.99,,,0.00,,2013-03-19 09:52:00,
2013-03-19 04:03:00,25.0,15.0,-100.00,ENE,60,1.0,2.0,64,-99.99,,,0.00,,2013-03-19 10:03:00,
2013-03-19 04:12:00,25.0,16.0,-100.00,East,90,0.0,3.0,66,-99.99,,,0.00,,2013-03-19 10:12:00,
2013-03-19 04:23:00,25.0,16.0,-100.00,East,90,0.0,3.0,66,-99.99,,,0.00,,2013-03-19 10:23:00,
2013-03-19 04:32:00,25.0,16.0,-100.00,East,90,0.0,3.0,66,-99.99,,,0.00,,2013-03-19 10:32:00,
2013-03-19 04:42:00,25.0,16.0,-100.00,East,90,0.0,3.0,66,-99.99,,,0.00,,2013-03-19 10:42:00,
2013-03-19 04:52:00,26.0,17.0,-100.00,WSW,240,3.0,4.0,68,-99.99,,,0.00,,2013-03-19 10:52:00,
2013-03-19 05:02:00,26.0,17.0,-100.00,WSW,240,3.0,4.0,68,-99.99,,,0.00,,2013-03-19 11:02:00,
2013-03-19 05:12:00,26.0,17.0,-100.00,SW,230,1.0,4.0,69,-99.99,,,0.00,,2013-03-19 11:12:00,
2013-03-19 05:22:00,26.0,17.0,-100.00,SW,230,1.0,4.0,69,-99.99,,,0.00,,2013-03-19 11:22:00,
2013-03-19 05:32:00,26.0,17.0,-100.00,SW,230,1.0,4.0,69,-99.99,,,0.00,,2013-03-19 11:32:00,
2013-03-19 05:42:00,26.0,17.0,-100.00,SW,230,1.0,4.0,69,-99.99,,,0.00,,2013-03-19 11:42:00,
2013-03-19 05:52:00,27.0,18.0,-100.00,NE,40,3.0,3.0,68,-99.99,,,0.00,,2013-03-19 11:52:00,
2013-03-19 06:02:00,27.0,18.0,-100.00,NE,40,3.0,3.0,68,-99.99,,,0.00,,2013-03-19 12:02:00,
2013-03-19 06:12:00,26.0,16.0,-100.00,ESE,110,3.0,6.0,67,-99.99,,,0.00,,2013-03-19 12:12:00,
2013-03-19 06:22:00,26.0,16.0,-100.00,ESE,110,3.0,6.0,67,-99.99,,,0.00,,2013-03-19 12:22:00,
2013-03-19 06:32:00,26.0,16.0,-100.00,ESE,110,3.0,6.0,67,-99.99,,,0.00,,2013-03-19 12:32:00,
2013-03-19 06:42:00,26.0,16.0,-100.00,ESE,110,3.0,6.0,67,-99.99,,,0.00,,2013-03-19 12:42:00,
2013-03-19 06:52:00,26.0,17.0,-100.00,South,170,1.0,1.0,67,-99.99,,,0.00,,2013-03-19 12:52:00,
2013-03-19 07:02:00,26.0,17.0,-100.00,South,170,1.0,1.0,67,-99.99,,,0.00,,2013-03-19 13:02:00,
2013-03-19 07:12:00,27.0,18.0,-100.00,NE,45,11.0,14.0,67,-99.99,,,0.00,,2013-03-19 13:12:00,
2013-03-19 07:22:00,27.0,18.0,-100.00,NE,45,11.0,14.0,67,-99.99,,,0.00,,2013-03-19 13:22:00,
2013-03-19 07:32:00,27.0,18.0,-100.00,NE,45,11.0,14.0,67,-99.99,,,0.00,,2013-03-19 13:32:00,
2013-03-19 07:42:00,27.0,18.0,-100.00,NE,45,11.0,14.0,67,-99.99,,,0.00,,2013-03-19 13:42:00,
2013-03-19 08:12:00,26.0,22.0,-100.00,East,85,7.0,9.0,87,-99.99,,,0.00,,2013-03-19 14:12:00,
2013-03-19 08:22:00,26.0,22.0,-100.00,East,85,7.0,9.0,87,-99.99,,,0.00,,2013-03-19 14:22:00,
2013-03-19 08:32:00,26.0,22.0,-100.00,East,85,7.0,9.0,87,-99.99,,,0.00,,2013-03-19 14:32:00,
2013-03-19 08:42:00,26.0,22.0,-100.00,East,85,7.0,9.0,87,-99.99,,,0.00,,2013-03-19 14:42:00,
2013-03-19 08:52:00,25.0,20.0,-100.00,East,80,13.0,16.0,83,-99.99,,,0.00,,2013-03-19 14:52:00,
2013-03-19 09:02:00,25.0,20.0,-100.00,East,80,13.0,16.0,83,-99.99,,,0.00,,2013-03-19 15:02:00,
2013-03-19 09:12:00,25.0,19.0,-100.00,ENE,70,8.0,13.0,78,-99.99,,,0.00,,2013-03-19 15:12:00,
2013-03-19 09:22:00,25.0,19.0,-100.00,ENE,70,8.0,13.0,78,-99.99,,,0.00,,2013-03-19 15:22:00,
2013-03-19 09:33:00,25.0,19.0,-100.00,ENE,70,8.0,13.0,78,-99.99,,,0.00,,2013-03-19 15:33:00,
2013-03-19 09:43:00,25.0,19.0,-100.00,ENE,70,8.0,13.0,78,-99.99,,,0.00,,2013-03-19 15:43:00,
2013-03-19 09:53:00,26.0,20.0,-100.00,East,85,7.0,11.0,76,-99.99,,,0.00,,2013-03-19 15:53:00,
2013-03-19 10:03:00,26.0,20.0,-100.00,East,85,7.0,11.0,76,-99.99,,,0.00,,2013-03-19 16:03:00,
2013-03-19 10:13:00,26.0,20.0,-100.00,East,85,7.0,11.0,76,-99.99,,,0.00,,2013-03-19 16:13:00,
2013-03-19 12:13:00,29.0,20.0,-100.00,East,85,9.0,13.0,68,-99.99,,,0.00,,2013-03-19 18:13:00,
2013-03-19 12:23:00,29.0,20.0,-100.00,East,85,9.0,13.0,68,-99.99,,,0.00,,2013-03-19 18:23:00,
2013-03-19 12:33:00,29.0,20.0,-100.00,East,85,9.0,13.0,68,-99.99,,,0.00,,2013-03-19 18:33:00,
2013-03-19 12:42:00,29.0,20.0,-100.00,East,85,9.0,13.0,68,-99.99,,,0.00,,2013-03-19 18:42:00,
2013-03-19 12:52:00,30.0,18.0,-100.00,ESE,110,8.0,11.0,61,-99.99,,,0.00,,2013-03-19 18:52:00,
2013-03-19 13:02:00,30.0,18.0,-100.00,ESE,110,8.0,11.0,61,-99.99,,,0.00,,2013-03-19 19:02:00,
2013-03-19 13:12:00,32.0,19.0,-100.00,SE,125,3.0,8.0,57,-99.99,,,0.00,,2013-03-19 19:12:00,
2013-03-19 13:22:00,32.0,19.0,-100.00,SE,125,3.0,8.0,57,-99.99,,,0.00,,2013-03-19 19:22:00,
2013-03-19 13:32:00,32.0,19.0,-100.00,SE,125,3.0,8.0,57,-99.99,,,0.00,,2013-03-19 19:32:00,
2013-03-19 13:42:00,32.0,19.0,-100.00,SE,125,3.0,8.0,57,-99.99,,,0.00,,2013-03-19 19:42:00,
2013-03-19 13:52:00,33.0,18.0,-100.00,SE,125,4.0,10.0,54,-99.99,,,0.00,,2013-03-19 19:52:00,
2013-03-19 14:02:00,33.0,18.0,-100.00,SE,125,4.0,10.0,54,-99.99,,,0.00,,2013-03-19 20:02:00,
2013-03-19 14:12:00,35.0,17.0,-100.00,East,90,8.0,14.0,48,-99.99,,,0.00,,2013-03-19 20:12:00,
2013-03-19 14:22:00,35.0,17.0,-100.00,East,90,8.0,14.0,48,-99.99,,,0.00,,2013-03-19 20:22:00,
2013-03-19 14:32:00,35.0,17.0,-100.00,East,90,8.0,14.0,48,-99.99,,,0.00,,2013-03-19 20:32:00,
2013-03-19 14:42:00,35.0,17.0,-100.00,East,90,8.0,14.0,48,-99.99,,,0.00,,2013-03-19 20:42:00,
2013-03-19 14:52:00,37.0,16.0,-100.00,ENE,65,9.0,13.0,42,-99.99,,,0.00,,2013-03-19 20:52:00,
2013-03-19 15:02:00,37.0,16.0,-100.00,ENE,65,9.0,13.0,42,-99.99,,,0.00,,2013-03-19 21:02:00,
2013-03-19 15:11:00,37.0,15.0,-100.00,NE,55,6.0,15.0,40,-99.99,,,0.00,,2013-03-19 21:11:00,
2013-03-19 15:22:00,37.0,15.0,-100.00,NE,55,6.0,15.0,40,-99.99,,,0.00,,2013-03-19 21:22:00,
2013-03-19 15:33:00,37.0,15.0,-100.00,NE,55,6.0,15.0,40,-99.99,,,0.00,,2013-03-19 21:33:00,
2013-03-19 15:42:00,37.0,15.0,-100.00,NE,55,6.0,15.0,40,-99.99,,,0.00,,2013-03-19 21:42:00,
2013-03-19 15:52:00,38.0,14.0,-100.00,East,80,8.0,13.0,36,-99.99,,,0.00,,2013-03-19 21:52:00,
2013-03-19 16:03:00,38.0,14.0,-100.00,East,80,8.0,13.0,36,-99.99,,,0.00,,2013-03-19 22:03:00,
2013-03-19 16:12:00,38.0,13.0,-100.00,ESE,115,9.0,14.0,36,-99.99,,,0.00,,2013-03-19 22:12:00,
2013-03-19 16:23:00,38.0,13.0,-100.00,ESE,115,9.0,14.0,36,-99.99,,,0.00,,2013-03-19 22:23:00,
2013-03-19 16:33:00,38.0,13.0,-100.00,ESE,115,9.0,14.0,36,-99.99,,,0.00,,2013-03-19 22:33:00,
2013-03-19 16:43:00,38.0,13.0,-100.00,ESE,115,9.0,14.0,36,-99.99,,,0.00,,2013-03-19 22:43:00,
2013-03-19 16:52:00,37.0,12.0,-100.00,South,185,8.0,10.0,35,-99.99,,,0.00,,2013-03-19 22:52:00,
2013-03-19 17:02:00,37.0,12.0,-100.00,South,185,8.0,10.0,35,-99.99,,,0.00,,2013-03-19 23:02:00,
2013-03-19 17:12:00,39.0,13.0,-100.00,East,95,11.0,17.0,34,-99.99,,,0.00,,2013-03-19 23:12:00,
2013-03-19 17:22:00,39.0,13.0,-100.00,East,95,11.0,17.0,34,-99.99,,,0.00,,2013-03-19 23:22:00,
2013-03-19 17:32:00,39.0,13.0,-100.00,East,95,11.0,17.0,34,-99.99,,,0.00,,2013-03-19 23:32:00,
2013-03-19 17:42:00,39.0,13.0,-100.00,East,95,11.0,17.0,34,-99.99,,,0.00,,2013-03-19 23:42:00,
2013-03-19 17:52:00,37.0,11.0,-100.00,ESE,110,11.0,16.0,34,-99.99,,,0.00,,2013-03-19 23:52:00,
2013-03-19 18:02:00,37.0,11.0,-100.00,ESE,110,11.0,16.0,34,-99.99,,,0.00,,2013-03-20 00:02:00,
2013-03-19 18:12:00,38.0,12.0,-100.00,ESE,105,10.0,12.0,34,-99.99,,,0.00,,2013-03-20 00:12:00,
2013-03-19 18:22:00,38.0,12.0,-100.00,ESE,105,10.0,12.0,34,-99.99,,,0.00,,2013-03-20 00:22:00,
2013-03-19 18:32:00,38.0,12.0,-100.00,ESE,105,10.0,12.0,34,-99.99,,,0.00,,2013-03-20 00:32:00,
2013-03-19 18:42:00,38.0,12.0,-100.00,ESE,105,10.0,12.0,34,-99.99,,,0.00,,2013-03-20 00:42:00,
2013-03-19 18:52:00,38.0,12.0,-100.00,ESE,105,9.0,12.0,34,-99.99,,,0.00,,2013-03-20 00:52:00,
2013-03-19 19:02:00,38.0,12.0,-100.00,ESE,105,9.0,12.0,34,-99.99,,,0.00,,2013-03-20 01:02:00,
2013-03-19 19:12:00,37.0,12.0,-100.00,SE,130,8.0,12.0,36,-99.99,,,0.00,,2013-03-20 01:12:00,
2013-03-19 19:22:00,37.0,12.0,-100.00,SE,130,8.0,12.0,36,-99.99,,,0.00,,2013-03-20 01:22:00,
2013-03-19 19:32:00,37.0,12.0,-100.00,SE,130,8.0,12.0,36,-99.99,,,0.00,,2013-03-20 01:32:00,
2013-03-19 19:42:00,37.0,12.0,-100.00,SE,130,8.0,12.0,36,-99.99,,,0.00,,2013-03-20 01:42:00,
2013-03-19 19:52:00,35.0,12.0,-100.00,SE,140,10.0,12.0,38,-99.99,,,0.00,,2013-03-20 01:52:00,
2013-03-19 20:02:00,35.0,12.0,-100.00,SE,140,10.0,12.0,38,-99.99,,,0.00,,2013-03-20 02:02:00,
2013-03-19 20:11:00,33.0,11.0,-100.00,SSE,160,7.0,11.0,40,-99.99,,,0.00,,2013-03-20 02:11:00,
2013-03-19 20:22:00,33.0,11.0,-100.00,SSE,160,7.0,11.0,40,-99.99,,,0.00,,2013-03-20 02:22:00,
2013-03-19 20:32:00,33.0,11.0,-100.00,SSE,160,7.0,11.0,40,-99.99,,,0.00,,2013-03-20 02:32:00,
2013-03-19 20:42:00,33.0,11.0,-100.00,SSE,160,7.0,11.0,40,-99.99,,,0.00,,2013-03-20 02:42:00,
2013-03-19 21:12:00,31.0,12.0,-100.00,South,170,11.0,16.0,44,-99.99,,,0.00,,2013-03-20 03:12:00,
2013-03-19 21:22:00,31.0,12.0,-100.00,South,170,11.0,16.0,44,-99.99,,,0.00,,2013-03-20 03:22:00,
2013-03-19 21:33:00,31.0,12.0,-100.00,South,170,11.0,16.0,44,-99.99,,,0.00,,2013-03-20 03:33:00,
2013-03-19 21:42:00,31.0,12.0,-100.00,South,170,11.0,16.0,44,-99.99,,,0.00,,2013-03-20 03:42:00,
2013-03-19 21:53:00,31.0,12.0,-100.00,South,170,9.0,21.0,45,-99.99,,,0.00,,2013-03-20 03:53:00,
2013-03-19 22:02:00,31.0,12.0,-100.00,South,170,9.0,21.0,45,-99.99,,,0.00,,2013-03-20 04:02:00,
2013-03-19 22:12:00,30.0,12.0,-100.00,SSE,160,11.0,16.0,46,-99.99,,,0.00,,2013-03-20 04:12:00,
2013-03-19 22:22:00,30.0,12.0,-100.00,SSE,160,11.0,16.0,46,-99.99,,,0.00,,2013-03-20 04:22:00,
2013-03-19 22:32:00,30.0,12.0,-100.00,SSE,160,11.0,16.0,46,-99.99,,,0.00,,2013-03-20 04:32:00,
2013-03-19 22:43:00,30.0,12.0,-100.00,SSE,160,11.0,16.0,46,-99.99,,,0.00,,2013-03-20 04:43:00,
2013-03-19 22:52:00,30.0,14.0,-100.00,South,170,17.0,20.0,50,-99.99,,,0.00,,2013-03-20 04:52:00,
2013-03-19 23:02:00,30.0,14.0,-100.00,South,170,17.0,20.0,50,-99.99,,,0.00,,2013-03-20 05:02:00,
2013-03-19 23:12:00,30.0,14.0,-100.00,SSE,160,15.0,22.0,51,-99.99,,,-99.99,,2013-03-20 05:12:00,
2013-03-19 23:22:00,30.0,14.0,-100.00,SSE,160,15.0,22.0,51,-99.99,,,-99.99,,2013-03-20 05:22:00,
2013-03-19 23:32:00,30.0,14.0,-100.00,SSE,160,15.0,22.0,51,-99.99,,,-99.99,,2013-03-20 05:32:00,
2013-03-19 23:42:00,30.0,14.0,-100.00,SSE,160,15.0,22.0,51,-99.99,,,-99.99,,2013-03-20 05:42:00,